createdAt,value
2023-03-15T00:06:01.497Z,99339.69
2023-03-15T00:12:43.833Z,99345.75
2023-03-15T00:19:26.232Z,99364.84
2023-03-15T00:26:08.488Z,99364.84
2023-03-15T00:32:54.022Z,99401.28
2023-03-15T00:39:37.968Z,99399.53
2023-03-15T00:46:23.835Z,99401.25
2023-03-15T00:53:06.145Z,99425.50
2023-03-15T00:59:48.816Z,99429.81
2023-03-15T01:06:31.120Z,99434.13
2023-03-15T01:13:14.895Z,99443.69
2023-03-15T01:19:58.716Z,99463.66
2023-03-15T01:26:41.259Z,99465.41
2023-03-15T01:33:26.023Z,99485.41
2023-03-15T01:40:14.005Z,99504.53
2023-03-15T01:46:59.084Z,99508.94
2023-03-15T01:53:46.186Z,99524.56
2023-03-15T02:00:29.067Z,99542.81
2023-03-15T02:07:20.526Z,99549.78
2023-03-15T02:14:05.171Z,99574.13
2023-03-15T02:21:15.157Z,99588.06
2023-03-15T02:27:58.376Z,99595.06
2023-03-15T02:34:40.612Z,99605.56
2023-03-15T02:41:36.631Z,99625.53
2023-03-15T02:48:19.278Z,99633.41
2023-03-15T02:55:02.278Z,99645.56
2023-03-15T03:01:46.042Z,99656.84
2023-03-15T03:08:28.453Z,99664.69
2023-03-15T03:15:11.758Z,99682.91
2023-03-15T03:21:54.963Z,99695.94
2023-03-15T03:28:37.408Z,99711.56
2023-03-15T03:35:20.741Z,99729.78
2023-03-15T03:42:03.425Z,99741.06
2023-03-15T03:48:45.993Z,99758.41
2023-03-15T03:55:28.350Z,99774.88
2023-03-15T04:02:11.127Z,99790.50
2023-03-15T04:08:59.062Z,99808.66
2023-03-15T04:15:48.809Z,99821.69
2023-03-15T04:22:32.311Z,99837.28
2023-03-15T04:29:38.000Z,99840.72
2023-03-15T04:36:56.645Z,99851.13
2023-03-15T04:44:06.673Z,99868.47
2023-03-15T04:51:11.925Z,99882.31
2023-03-15T04:58:17.855Z,99887.53
2023-03-15T05:05:29.500Z,99883.19
2023-03-15T05:12:22.028Z,99901.41
2023-03-15T05:19:39.603Z,99920.47
2023-03-15T05:26:54.260Z,99930.88
2023-03-15T05:33:36.702Z,99944.72
2023-03-15T05:40:37.478Z,99962.94
2023-03-15T05:47:34.187Z,99964.66
2023-03-15T05:54:23.329Z,99994.13
2023-03-15T06:01:21.381Z,99999.34
2023-03-15T06:08:24.385Z,100015.78
2023-03-15T06:15:08.454Z,100024.47
2023-03-15T06:21:51.438Z,100035.75
2023-03-15T06:28:57.493Z,100034.03
2023-03-15T06:35:41.107Z,100056.59
2023-03-15T06:42:23.643Z,100069.56
2023-03-15T06:49:06.149Z,100095.59
2023-03-15T06:55:50.747Z,100101.69
2023-03-15T07:02:38.032Z,100123.41
2023-03-15T07:09:20.568Z,100133.84
2023-03-15T07:16:03.038Z,100146.00
2023-03-15T07:22:45.952Z,100151.19
2023-03-15T07:29:28.275Z,100157.25
2023-03-15T07:36:10.608Z,100165.94
2023-03-15T07:42:52.931Z,100171.97
2023-03-15T07:49:36.513Z,100178.91
2023-03-15T07:56:19.793Z,100188.44
2023-03-15T08:03:02.521Z,100191.06
2023-03-15T08:09:44.964Z,100200.59
2023-03-15T08:17:42.648Z,100204.91
2023-03-15T08:24:42.545Z,100223.13
2023-03-15T08:31:24.905Z,100228.28
2023-03-15T08:38:07.538Z,100238.75
2023-03-15T08:44:49.758Z,100252.66
2023-03-15T08:51:32.291Z,100271.84
2023-03-15T08:58:14.503Z,100273.56
2023-03-15T09:04:56.808Z,100292.66
2023-03-15T09:11:39.240Z,100310.06
2023-03-15T09:18:22.314Z,100320.50
2023-03-15T09:25:05.398Z,100330.97
2023-03-15T09:31:47.642Z,100334.47
2023-03-15T09:38:29.946Z,100344.00
2023-03-15T09:46:15.692Z,100368.28
2023-03-15T09:53:14.049Z,100384.81
2023-03-15T09:59:58.884Z,100385.66
2023-03-15T10:06:47.661Z,100385.69
2023-03-15T10:14:12.256Z,100393.50
2023-03-15T10:21:27.300Z,100406.59
2023-03-15T10:28:26.038Z,100397.91
2023-03-15T10:35:18.102Z,100410.09
2023-03-15T10:42:00.480Z,100404.84
2023-03-15T10:49:15.065Z,100417.88
2023-03-15T10:56:07.692Z,100408.31
2023-03-15T11:03:00.860Z,100417.84
2023-03-15T11:09:58.894Z,100427.41
2023-03-15T11:16:41.132Z,100430.84
2023-03-15T11:23:36.254Z,100430.00
2023-03-15T11:30:30.275Z,100431.69
2023-03-15T11:37:56.778Z,100424.69
2023-03-15T11:44:50.449Z,100432.50
2023-03-15T11:51:36.566Z,100428.06
2023-03-15T11:58:36.135Z,100424.94
2023-03-15T12:06:04.308Z,100430.38
2023-03-15T12:12:56.739Z,100454.91
2023-03-15T12:19:39.072Z,100468.34
2023-03-15T12:27:03.270Z,100476.47
2023-03-15T12:33:54.092Z,100483.66
2023-03-15T12:40:52.807Z,100482.91
2023-03-15T12:47:47.809Z,100496.84
2023-03-15T12:54:46.945Z,100504.66
2023-03-15T13:01:29.389Z,100504.50
2023-03-15T13:08:29.906Z,100502.50
2023-03-15T13:15:19.322Z,100521.81
2023-03-15T13:22:22.574Z,100527.22
2023-03-15T13:29:17.744Z,100541.25
2023-03-15T13:36:12.160Z,100547.25
2023-03-15T13:43:01.960Z,100544.38
2023-03-15T13:49:44.195Z,100536.34
2023-03-15T13:56:43.721Z,100549.84
2023-03-15T14:03:29.566Z,100561.88
2023-03-15T14:10:29.931Z,100576.03
2023-03-15T14:17:27.329Z,100570.75
2023-03-15T14:24:17.755Z,100577.16
2023-03-15T14:31:00.939Z,100579.38
2023-03-15T14:37:44.187Z,100590.06
2023-03-15T14:44:26.435Z,100592.53
2023-03-15T14:51:19.126Z,100601.75
2023-03-15T14:58:12.499Z,100611.72
2023-03-15T15:04:54.712Z,100616.31
2023-03-15T15:11:36.916Z,100612.09
2023-03-15T15:18:19.798Z,100634.28
2023-03-15T15:25:02.550Z,100634.41
2023-03-15T15:31:45.961Z,100639.56
2023-03-15T15:38:38.528Z,100650.88
2023-03-15T15:45:21.440Z,100656.16
2023-03-15T15:52:04.496Z,100663.38
2023-03-15T15:58:47.447Z,100678.50
2023-03-15T16:05:31.439Z,100678.66
2023-03-15T16:12:16.450Z,100697.09
2023-03-15T16:18:58.902Z,100711.16
2023-03-15T16:25:41.720Z,100723.44
2023-03-15T16:32:41.124Z,100729.59
2023-03-15T16:39:26.319Z,100740.06
2023-03-15T16:46:16.271Z,100755.72
2023-03-15T16:53:02.640Z,100760.94
2023-03-15T16:59:44.964Z,100765.25
2023-03-15T17:06:28.076Z,100766.94
2023-03-15T17:13:14.878Z,100771.22
2023-03-15T17:19:57.615Z,100786.78
2023-03-15T17:26:41.862Z,100797.06
2023-03-15T17:33:25.996Z,100803.03
2023-03-15T17:40:31.685Z,100808.97
2023-03-15T17:47:13.985Z,100823.63
2023-03-15T17:53:57.837Z,100834.00
2023-03-15T18:00:42.099Z,100848.66
2023-03-15T18:07:28.700Z,100853.72
2023-03-15T18:14:14.296Z,100861.47
2023-03-15T18:20:56.568Z,100863.13
2023-03-15T18:27:38.904Z,100867.34
2023-03-15T18:34:23.151Z,100865.44
2023-03-15T18:41:18.937Z,100867.00
2023-03-15T18:48:02.679Z,100894.59
2023-03-15T18:54:45.017Z,100893.56
2023-03-15T19:01:27.716Z,100908.06
2023-03-15T19:08:10.153Z,100908.66
2023-03-15T19:14:52.403Z,100921.44
2023-03-15T19:21:34.733Z,100920.31
2023-03-15T19:28:17.413Z,100926.16
2023-03-15T19:35:00.123Z,100933.75
2023-03-15T19:41:44.439Z,100933.59
2023-03-15T19:48:26.900Z,100949.13
2023-03-15T19:55:09.454Z,100946.34
2023-03-15T20:01:52.909Z,100947.97
2023-03-15T20:08:36.064Z,100958.25
2023-03-15T20:15:19.439Z,100968.50
2023-03-15T20:22:01.967Z,100968.41
2023-03-15T20:28:45.497Z,100972.66
2023-03-15T20:35:28.525Z,100977.84
2023-03-15T20:42:11.060Z,100967.38
2023-03-15T20:48:53.365Z,100976.75
2023-03-15T20:55:35.659Z,100981.81
2023-03-15T21:02:19.297Z,100986.88
2023-03-15T21:09:01.548Z,100987.63
2023-03-15T21:15:47.807Z,100990.16
2023-03-15T21:22:30.032Z,101003.81
2023-03-15T21:29:12.373Z,100996.78
2023-03-15T21:35:57.194Z,101000.09
2023-03-15T21:42:40.870Z,101002.56
2023-03-15T21:49:23.220Z,101001.53
2023-03-15T21:56:05.891Z,101010.88
2023-03-15T22:02:48.304Z,101016.81
2023-03-15T22:09:30.542Z,101020.13
2023-03-15T22:16:13.432Z,101009.63
2023-03-15T22:22:55.610Z,101018.19
2023-03-15T22:29:39.561Z,101021.50
2023-03-15T22:36:23.028Z,101018.78
2023-03-15T22:43:07.543Z,101024.72
2023-03-15T22:49:50.164Z,101035.84
2023-03-15T22:56:32.426Z,101034.97
2023-03-15T23:03:15.455Z,101051.31
2023-03-15T23:09:57.647Z,101049.50
2023-03-15T23:16:39.831Z,101058.94
2023-03-15T23:23:22.241Z,101056.25
2023-03-15T23:30:06.929Z,101059.56
2023-03-15T23:36:50.214Z,101062.09
2023-03-15T23:43:33.700Z,101076.69
2023-03-15T23:50:17.307Z,101078.41
2023-03-15T23:56:59.634Z,101075.69
